createdAt,value
2022-12-05T00:07:46.459Z,0.16
2022-12-05T00:17:53.834Z,0.11
2022-12-05T00:28:00.975Z,0.14
2022-12-05T00:38:07.424Z,0.12
2022-12-05T00:48:14.533Z,0.15
2022-12-05T00:58:21.652Z,0.06
2022-12-05T01:08:29.136Z,-0.05
2022-12-05T01:18:36.109Z,-0.06
2022-12-05T01:28:44.319Z,-0.00
2022-12-05T01:38:51.792Z,0.04
2022-12-05T01:48:57.118Z,0.04
2022-12-05T01:59:06.869Z,0.05
2022-12-05T02:09:14.022Z,0.07
2022-12-05T02:20:04.816Z,0.08
2022-12-05T02:30:13.894Z,0.08
2022-12-05T02:40:21.143Z,0.09
2022-12-05T02:50:38.324Z,0.14
2022-12-05T03:00:49.382Z,0.08
2022-12-05T03:10:58.264Z,0.05
2022-12-05T03:21:03.973Z,0.10
2022-12-05T03:31:09.141Z,0.13
2022-12-05T03:41:15.918Z,0.22
2022-12-05T03:51:26.369Z,0.27
2022-12-05T04:01:35.796Z,0.28
2022-12-05T04:11:40.533Z,0.18
2022-12-05T04:21:53.845Z,0.13
2022-12-05T04:32:07.955Z,0.19
2022-12-05T04:42:19.486Z,0.22
2022-12-05T04:52:29.666Z,0.25
2022-12-05T05:02:39.272Z,0.17
2022-12-05T05:12:46.720Z,0.12
2022-12-05T05:22:55.177Z,0.18
2022-12-05T05:33:02.625Z,0.18
2022-12-05T05:43:09.873Z,0.20
2022-12-05T05:53:16.904Z,0.23
2022-12-05T06:03:24.172Z,0.18
2022-12-05T06:13:32.143Z,0.12
2022-12-05T06:23:40.531Z,0.17
2022-12-05T06:33:46.878Z,0.20
2022-12-05T06:43:56.253Z,0.25
2022-12-05T06:54:05.061Z,0.33
2022-12-05T07:04:15.776Z,0.35
2022-12-05T07:24:49.197Z,0.36
2022-12-05T07:34:56.377Z,0.43
2022-12-05T07:45:03.538Z,0.51
2022-12-05T07:55:11.584Z,0.58
2022-12-05T08:05:17.463Z,0.63
2022-12-05T08:15:24.462Z,0.72
2022-12-05T08:25:31.189Z,0.85
2022-12-05T08:35:39.663Z,1.03
2022-12-05T08:45:51.035Z,1.24
2022-12-05T08:56:01.259Z,1.27
2022-12-05T09:06:09.105Z,1.38
2022-12-05T09:16:19.075Z,1.57
2022-12-05T09:26:27.770Z,1.83
2022-12-05T09:36:34.923Z,1.96
2022-12-05T09:46:47.844Z,1.93
2022-12-05T09:56:55.775Z,2.07
2022-12-05T10:07:01.038Z,2.22
2022-12-05T10:17:06.260Z,2.21
2022-12-05T10:27:16.532Z,2.26
2022-12-05T10:37:25.575Z,2.38
2022-12-05T10:47:34.125Z,2.42
2022-12-05T10:57:41.993Z,2.37
2022-12-05T11:07:48.687Z,2.41
2022-12-05T11:17:58.120Z,2.45
2022-12-05T11:28:23.937Z,2.60
2022-12-05T11:38:32.359Z,2.73
2022-12-05T11:48:48.519Z,2.82
2022-12-05T11:58:57.862Z,2.94
2022-12-05T12:09:08.591Z,3.07
2022-12-05T12:19:18.090Z,3.23
2022-12-05T12:29:27.190Z,3.29
2022-12-05T12:39:35.308Z,3.29
2022-12-05T12:49:44.385Z,3.34
2022-12-05T12:59:53.448Z,3.44
2022-12-05T13:10:02.494Z,3.52
2022-12-05T13:20:15.601Z,3.61
2022-12-05T13:30:20.454Z,3.56
2022-12-05T13:40:46.783Z,3.52
2022-12-05T13:50:53.229Z,3.55
2022-12-05T14:01:30.852Z,3.58
2022-12-05T14:11:37.924Z,3.54
2022-12-05T14:32:04.721Z,3.48
2022-12-05T14:42:28.121Z,3.56
2022-12-05T14:52:35.484Z,3.61
2022-12-05T15:02:48.386Z,3.56
2022-12-05T15:12:59.226Z,3.39
2022-12-05T15:23:29.429Z,3.30
2022-12-05T15:33:37.050Z,3.36
2022-12-05T15:43:45.880Z,3.44
2022-12-05T16:04:04.204Z,3.39
2022-12-05T16:14:21.560Z,3.25
2022-12-05T16:24:43.078Z,3.23
2022-12-05T16:34:50.617Z,3.30
2022-12-05T16:44:57.244Z,3.43
2022-12-05T16:55:05.009Z,3.51
2022-12-05T17:05:15.956Z,3.48
2022-12-05T17:15:21.303Z,3.44
2022-12-05T17:25:28.684Z,3.49
2022-12-05T17:35:33.830Z,3.61
2022-12-05T17:45:41.006Z,3.71
2022-12-05T17:55:48.969Z,3.77
2022-12-05T18:05:56.172Z,3.76
2022-12-05T18:16:03.830Z,3.71
2022-12-05T18:26:12.166Z,3.78
2022-12-05T18:36:21.355Z,3.86
2022-12-05T18:46:26.212Z,3.93
2022-12-05T18:56:34.991Z,3.97
2022-12-05T19:06:43.395Z,3.90
2022-12-05T19:16:58.023Z,3.87
2022-12-05T19:27:07.598Z,3.93
2022-12-05T19:37:14.662Z,4.06
2022-12-05T19:47:21.827Z,4.10
2022-12-05T19:57:31.450Z,3.94
2022-12-05T20:07:39.012Z,3.86
2022-12-05T20:17:52.968Z,3.85
2022-12-05T20:28:00.922Z,3.85
2022-12-05T20:38:08.072Z,3.88
2022-12-05T20:48:15.200Z,3.90
2022-12-05T20:58:22.445Z,3.93
2022-12-05T21:08:29.882Z,3.93
2022-12-05T21:18:37.568Z,3.93
2022-12-05T21:28:46.019Z,3.92
2022-12-05T21:38:56.184Z,3.95
2022-12-05T21:49:03.922Z,3.95
2022-12-05T21:59:10.965Z,3.96
2022-12-05T22:09:16.977Z,4.03
2022-12-05T22:19:24.224Z,4.03
2022-12-05T22:29:31.252Z,3.98
2022-12-05T22:39:38.533Z,3.99
2022-12-05T22:49:45.724Z,4.06
2022-12-05T22:59:52.802Z,4.21
2022-12-05T23:10:00.428Z,4.29
2022-12-05T23:20:08.043Z,4.21
2022-12-05T23:30:16.793Z,4.14
2022-12-05T23:40:24.713Z,4.08
2022-12-05T23:50:32.031Z,4.12
